Terminal Aerodrome Forecast
Issued by NWS

Home | Current Version | Previous Version | Text Only | Print | Product List | Glossary On
Versions: 1 2 3 4 5 6 7 8 9 10 11 12 13
000
FTUS45 KTFX 130539
TAFHVR
TAF
KHVR 130539Z 1306/1406 25009KT P6SM SKC
     FM131900 27015G23KT P6SM SCT080 BKN150
     FM140100 26010KT P6SM SCT200=

USA.gov is the U.S. government's official web portal to all federal, state and local government web resources and services.